sensor_id;sensor_type;location;lat;lon;timestamp;P1;durP1;ratioP1;P2;durP2;ratioP2
20709;SDS011;10516;51.518;9.864;2023-11-19T00:01:22;6.05;;;3.67;;
20709;SDS011;10516;51.518;9.864;2023-11-19T00:03:48;4.03;;;2.65;;
20709;SDS011;10516;51.518;9.864;2023-11-19T00:06:14;3.30;;;2.92;;
20709;SDS011;10516;51.518;9.864;2023-11-19T00:08:39;3.58;;;3.28;;
20709;SDS011;10516;51.518;9.864;2023-11-19T00:11:05;6.55;;;4.00;;
20709;SDS011;10516;51.518;9.864;2023-11-19T00:13:30;4.30;;;3.35;;
20709;SDS011;10516;51.518;9.864;2023-11-19T00:15:56;3.45;;;3.15;;
20709;SDS011;10516;51.518;9.864;2023-11-19T00:18:21;4.80;;;3.65;;
20709;SDS011;10516;51.518;9.864;2023-11-19T00:20:47;3.15;;;2.75;;
20709;SDS011;10516;51.518;9.864;2023-11-19T00:23:12;2.65;;;2.45;;
20709;SDS011;10516;51.518;9.864;2023-11-19T00:25:38;4.35;;;3.25;;
20709;SDS011;10516;51.518;9.864;2023-11-19T00:28:03;5.20;;;2.90;;
20709;SDS011;10516;51.518;9.864;2023-11-19T00:30:29;3.35;;;3.00;;
20709;SDS011;10516;51.518;9.864;2023-11-19T00:32:56;3.17;;;2.88;;
20709;SDS011;10516;51.518;9.864;2023-11-19T00:35:21;3.90;;;2.95;;
20709;SDS011;10516;51.518;9.864;2023-11-19T00:37:47;3.25;;;2.97;;
20709;SDS011;10516;51.518;9.864;2023-11-19T00:40:13;4.55;;;3.70;;
20709;SDS011;10516;51.518;9.864;2023-11-19T00:42:38;4.15;;;3.00;;
20709;SDS011;10516;51.518;9.864;2023-11-19T00:45:04;3.17;;;2.97;;
20709;SDS011;10516;51.518;9.864;2023-11-19T00:47:34;3.33;;;3.03;;
20709;SDS011;10516;51.518;9.864;2023-11-19T00:50:00;3.45;;;3.15;;
20709;SDS011;10516;51.518;9.864;2023-11-19T00:52:26;2.88;;;2.67;;
20709;SDS011;10516;51.518;9.864;2023-11-19T00:54:51;4.43;;;2.90;;
20709;SDS011;10516;51.518;9.864;2023-11-19T00:57:16;3.28;;;2.92;;
20709;SDS011;10516;51.518;9.864;2023-11-19T00:59:42;3.03;;;2.50;;
20709;SDS011;10516;51.518;9.864;2023-11-19T01:02:08;2.35;;;2.15;;
20709;SDS011;10516;51.518;9.864;2023-11-19T01:04:34;3.83;;;2.95;;
20709;SDS011;10516;51.518;9.864;2023-11-19T01:07:01;5.95;;;2.92;;
20709;SDS011;10516;51.518;9.864;2023-11-19T01:09:29;2.55;;;2.33;;
20709;SDS011;10516;51.518;9.864;2023-11-19T01:11:57;2.42;;;2.22;;
20709;SDS011;10516;51.518;9.864;2023-11-19T01:14:22;2.38;;;2.17;;
20709;SDS011;10516;51.518;9.864;2023-11-19T01:16:47;2.30;;;2.10;;
20709;SDS011;10516;51.518;9.864;2023-11-19T01:19:13;1.63;;;1.52;;
20709;SDS011;10516;51.518;9.864;2023-11-19T01:21:39;2.10;;;2.00;;
20709;SDS011;10516;51.518;9.864;2023-11-19T01:24:04;5.65;;;1.67;;
20709;SDS011;10516;51.518;9.864;2023-11-19T01:26:34;2.08;;;1.90;;
20709;SDS011;10516;51.518;9.864;2023-11-19T01:28:59;2.65;;;2.10;;
20709;SDS011;10516;51.518;9.864;2023-11-19T01:31:26;2.50;;;2.00;;
20709;SDS011;10516;51.518;9.864;2023-11-19T01:33:51;2.40;;;2.20;;
20709;SDS011;10516;51.518;9.864;2023-11-19T01:36:17;4.18;;;1.90;;
20709;SDS011;10516;51.518;9.864;2023-11-19T01:38:42;2.10;;;1.90;;
20709;SDS011;10516;51.518;9.864;2023-11-19T01:41:08;2.15;;;1.83;;
20709;SDS011;10516;51.518;9.864;2023-11-19T01:43:34;3.35;;;2.08;;
20709;SDS011;10516;51.518;9.864;2023-11-19T01:46:01;1.80;;;1.70;;
20709;SDS011;10516;51.518;9.864;2023-11-19T01:48:28;2.42;;;1.98;;
20709;SDS011;10516;51.518;9.864;2023-11-19T01:50:55;2.20;;;1.95;;
20709;SDS011;10516;51.518;9.864;2023-11-19T01:53:21;2.72;;;1.98;;
20709;SDS011;10516;51.518;9.864;2023-11-19T01:55:47;1.73;;;1.63;;
20709;SDS011;10516;51.518;9.864;2023-11-19T01:58:14;1.45;;;1.33;;
20709;SDS011;10516;51.518;9.864;2023-11-19T02:00:40;2.15;;;1.95;;
20709;SDS011;10516;51.518;9.864;2023-11-19T02:03:06;2.47;;;1.88;;
20709;SDS011;10516;51.518;9.864;2023-11-19T02:05:33;2.60;;;1.67;;
20709;SDS011;10516;51.518;9.864;2023-11-19T02:07:59;3.85;;;1.67;;
20709;SDS011;10516;51.518;9.864;2023-11-19T02:10:25;1.27;;;1.17;;
20709;SDS011;10516;51.518;9.864;2023-11-19T02:12:51;1.40;;;1.30;;
20709;SDS011;10516;51.518;9.864;2023-11-19T02:15:16;3.38;;;1.33;;
20709;SDS011;10516;51.518;9.864;2023-11-19T02:17:44;1.30;;;1.20;;
20709;SDS011;10516;51.518;9.864;2023-11-19T02:20:10;1.40;;;1.30;;
20709;SDS011;10516;51.518;9.864;2023-11-19T02:22:39;1.50;;;1.40;;
20709;SDS011;10516;51.518;9.864;2023-11-19T02:25:07;1.50;;;1.40;;
20709;SDS011;10516;51.518;9.864;2023-11-19T02:30:16;1.70;;;1.48;;
20709;SDS011;10516;51.518;9.864;2023-11-19T02:32:41;1.77;;;1.67;;
20709;SDS011;10516;51.518;9.864;2023-11-19T02:35:07;1.77;;;1.67;;
20709;SDS011;10516;51.518;9.864;2023-11-19T02:37:34;1.63;;;1.52;;
20709;SDS011;10516;51.518;9.864;2023-11-19T02:39:59;3.22;;;1.60;;
20709;SDS011;10516;51.518;9.864;2023-11-19T02:42:27;2.00;;;1.90;;
20709;SDS011;10516;51.518;9.864;2023-11-19T02:44:53;2.28;;;1.90;;
20709;SDS011;10516;51.518;9.864;2023-11-19T02:47:18;1.65;;;1.55;;
20709;SDS011;10516;51.518;9.864;2023-11-19T02:49:48;2.60;;;1.88;;
20709;SDS011;10516;51.518;9.864;2023-11-19T02:52:14;1.92;;;1.83;;
20709;SDS011;10516;51.518;9.864;2023-11-19T02:54:40;1.80;;;1.70;;
20709;SDS011;10516;51.518;9.864;2023-11-19T02:57:06;2.53;;;2.10;;
20709;SDS011;10516;51.518;9.864;2023-11-19T02:59:35;2.28;;;2.08;;
20709;SDS011;10516;51.518;9.864;2023-11-19T03:02:04;2.28;;;2.15;;
20709;SDS011;10516;51.518;9.864;2023-11-19T03:04:32;2.65;;;2.45;;
20709;SDS011;10516;51.518;9.864;2023-11-19T03:06:58;2.67;;;2.47;;
20709;SDS011;10516;51.518;9.864;2023-11-19T03:09:23;3.08;;;2.83;;
20709;SDS011;10516;51.518;9.864;2023-11-19T03:11:49;3.17;;;2.88;;
20709;SDS011;10516;51.518;9.864;2023-11-19T03:14:14;3.25;;;2.95;;
20709;SDS011;10516;51.518;9.864;2023-11-19T03:16:40;3.13;;;2.83;;
20709;SDS011;10516;51.518;9.864;2023-11-19T03:19:05;3.10;;;2.90;;
20709;SDS011;10516;51.518;9.864;2023-11-19T03:21:31;3.45;;;3.15;;
20709;SDS011;10516;51.518;9.864;2023-11-19T03:23:56;3.30;;;2.92;;
20709;SDS011;10516;51.518;9.864;2023-11-19T03:26:25;4.07;;;3.47;;
20709;SDS011;10516;51.518;9.864;2023-11-19T03:28:51;3.35;;;3.05;;
20709;SDS011;10516;51.518;9.864;2023-11-19T03:31:16;4.95;;;3.65;;
20709;SDS011;10516;51.518;9.864;2023-11-19T03:33:42;4.45;;;3.70;;
20709;SDS011;10516;51.518;9.864;2023-11-19T03:36:07;5.47;;;3.72;;
20709;SDS011;10516;51.518;9.864;2023-11-19T03:38:34;4.03;;;3.63;;
20709;SDS011;10516;51.518;9.864;2023-11-19T03:40:59;3.53;;;3.20;;
20709;SDS011;10516;51.518;9.864;2023-11-19T03:43:25;3.50;;;3.20;;
20709;SDS011;10516;51.518;9.864;2023-11-19T03:45:50;3.75;;;3.35;;
20709;SDS011;10516;51.518;9.864;2023-11-19T03:48:15;3.90;;;3.17;;
20709;SDS011;10516;51.518;9.864;2023-11-19T03:50:41;3.33;;;3.03;;
20709;SDS011;10516;51.518;9.864;2023-11-19T03:53:07;3.42;;;3.08;;
20709;SDS011;10516;51.518;9.864;2023-11-19T03:55:32;3.88;;;3.50;;
20709;SDS011;10516;51.518;9.864;2023-11-19T03:57:58;3.45;;;3.13;;
20709;SDS011;10516;51.518;9.864;2023-11-19T04:00:23;6.78;;;3.60;;
20709;SDS011;10516;51.518;9.864;2023-11-19T04:02:48;2.42;;;2.22;;
20709;SDS011;10516;51.518;9.864;2023-11-19T04:05:14;3.88;;;3.40;;
20709;SDS011;10516;51.518;9.864;2023-11-19T04:07:39;3.17;;;2.88;;
20709;SDS011;10516;51.518;9.864;2023-11-19T04:10:05;2.83;;;2.45;;
20709;SDS011;10516;51.518;9.864;2023-11-19T04:12:30;2.63;;;2.28;;
20709;SDS011;10516;51.518;9.864;2023-11-19T04:14:56;3.70;;;3.40;;
20709;SDS011;10516;51.518;9.864;2023-11-19T04:17:21;2.47;;;2.28;;
20709;SDS011;10516;51.518;9.864;2023-11-19T04:19:48;2.45;;;2.25;;
20709;SDS011;10516;51.518;9.864;2023-11-19T04:22:13;2.80;;;2.45;;
20709;SDS011;10516;51.518;9.864;2023-11-19T04:24:39;1.90;;;1.80;;
20709;SDS011;10516;51.518;9.864;2023-11-19T04:27:05;2.00;;;1.77;;
20709;SDS011;10516;51.518;9.864;2023-11-19T04:29:31;1.70;;;1.60;;
20709;SDS011;10516;51.518;9.864;2023-11-19T04:31:57;1.63;;;1.52;;
20709;SDS011;10516;51.518;9.864;2023-11-19T04:34:22;1.48;;;1.38;;
20709;SDS011;10516;51.518;9.864;2023-11-19T04:36:48;1.40;;;1.30;;
20709;SDS011;10516;51.518;9.864;2023-11-19T04:39:14;2.88;;;1.60;;
20709;SDS011;10516;51.518;9.864;2023-11-19T04:41:50;1.70;;;1.60;;
20709;SDS011;10516;51.518;9.864;2023-11-19T04:44:18;2.00;;;1.70;;
20709;SDS011;10516;51.518;9.864;2023-11-19T04:46:43;1.92;;;1.70;;
20709;SDS011;10516;51.518;9.864;2023-11-19T04:49:09;2.20;;;2.00;;
20709;SDS011;10516;51.518;9.864;2023-11-19T04:51:41;3.03;;;1.83;;
20709;SDS011;10516;51.518;9.864;2023-11-19T04:54:08;2.15;;;1.98;;
20709;SDS011;10516;51.518;9.864;2023-11-19T04:56:34;2.92;;;2.70;;
20709;SDS011;10516;51.518;9.864;2023-11-19T04:59:01;4.18;;;2.40;;
20709;SDS011;10516;51.518;9.864;2023-11-19T05:01:27;2.80;;;2.60;;
20709;SDS011;10516;51.518;9.864;2023-11-19T05:03:52;3.58;;;3.00;;
20709;SDS011;10516;51.518;9.864;2023-11-19T05:06:18;3.15;;;2.85;;
20709;SDS011;10516;51.518;9.864;2023-11-19T05:08:43;3.30;;;3.00;;
20709;SDS011;10516;51.518;9.864;2023-11-19T05:11:09;3.30;;;3.03;;
20709;SDS011;10516;51.518;9.864;2023-11-19T05:13:37;3.25;;;2.95;;
20709;SDS011;10516;51.518;9.864;2023-11-19T05:16:03;2.85;;;2.65;;
20709;SDS011;10516;51.518;9.864;2023-11-19T05:18:28;3.15;;;2.95;;
20709;SDS011;10516;51.518;9.864;2023-11-19T05:20:54;3.45;;;3.15;;
20709;SDS011;10516;51.518;9.864;2023-11-19T05:23:19;6.43;;;3.50;;
20709;SDS011;10516;51.518;9.864;2023-11-19T05:25:45;3.22;;;2.92;;
20709;SDS011;10516;51.518;9.864;2023-11-19T05:28:10;3.97;;;3.03;;
20709;SDS011;10516;51.518;9.864;2023-11-19T05:30:36;3.53;;;3.22;;
20709;SDS011;10516;51.518;9.864;2023-11-19T05:33:01;4.00;;;3.55;;
20709;SDS011;10516;51.518;9.864;2023-11-19T05:35:27;4.43;;;4.00;;
20709;SDS011;10516;51.518;9.864;2023-11-19T05:37:52;6.13;;;3.55;;
20709;SDS011;10516;51.518;9.864;2023-11-19T05:40:18;5.07;;;4.20;;
20709;SDS011;10516;51.518;9.864;2023-11-19T05:42:45;7.95;;;4.20;;
20709;SDS011;10516;51.518;9.864;2023-11-19T05:45:11;4.28;;;3.85;;
20709;SDS011;10516;51.518;9.864;2023-11-19T05:47:37;6.18;;;3.53;;
20709;SDS011;10516;51.518;9.864;2023-11-19T05:50:02;5.65;;;3.97;;
20709;SDS011;10516;51.518;9.864;2023-11-19T05:52:29;6.43;;;3.13;;
20709;SDS011;10516;51.518;9.864;2023-11-19T05:54:58;3.78;;;2.95;;
20709;SDS011;10516;51.518;9.864;2023-11-19T05:59:59;3.10;;;2.80;;
20709;SDS011;10516;51.518;9.864;2023-11-19T06:02:25;2.75;;;2.20;;
20709;SDS011;10516;51.518;9.864;2023-11-19T06:04:52;3.80;;;2.03;;
20709;SDS011;10516;51.518;9.864;2023-11-19T06:07:18;2.08;;;1.88;;
20709;SDS011;10516;51.518;9.864;2023-11-19T06:09:44;3.33;;;2.67;;
20709;SDS011;10516;51.518;9.864;2023-11-19T06:12:10;3.33;;;2.28;;
20709;SDS011;10516;51.518;9.864;2023-11-19T06:14:35;3.72;;;2.42;;
20709;SDS011;10516;51.518;9.864;2023-11-19T06:17:01;2.97;;;2.47;;
20709;SDS011;10516;51.518;9.864;2023-11-19T06:19:26;4.10;;;2.72;;
20709;SDS011;10516;51.518;9.864;2023-11-19T06:21:52;4.47;;;3.58;;
20709;SDS011;10516;51.518;9.864;2023-11-19T06:24:17;6.18;;;3.55;;
20709;SDS011;10516;51.518;9.864;2023-11-19T06:26:43;7.07;;;5.30;;
20709;SDS011;10516;51.518;9.864;2023-11-19T06:29:08;6.00;;;4.47;;
20709;SDS011;10516;51.518;9.864;2023-11-19T06:31:33;8.60;;;4.32;;
20709;SDS011;10516;51.518;9.864;2023-11-19T06:33:59;8.27;;;5.50;;
20709;SDS011;10516;51.518;9.864;2023-11-19T06:36:24;6.60;;;4.93;;
20709;SDS011;10516;51.518;9.864;2023-11-19T06:38:51;10.40;;;5.72;;
20709;SDS011;10516;51.518;9.864;2023-11-19T06:41:17;7.85;;;6.13;;
20709;SDS011;10516;51.518;9.864;2023-11-19T06:43:42;7.38;;;5.72;;
20709;SDS011;10516;51.518;9.864;2023-11-19T06:46:17;9.85;;;6.15;;
20709;SDS011;10516;51.518;9.864;2023-11-19T06:48:43;13.98;;;5.85;;
20709;SDS011;10516;51.518;9.864;2023-11-19T06:51:09;8.80;;;5.78;;
20709;SDS011;10516;51.518;9.864;2023-11-19T06:53:35;7.40;;;5.35;;
20709;SDS011;10516;51.518;9.864;2023-11-19T06:56:01;20.00;;;6.10;;
20709;SDS011;10516;51.518;9.864;2023-11-19T06:58:31;10.77;;;5.40;;
20709;SDS011;10516;51.518;9.864;2023-11-19T07:00:57;8.68;;;5.22;;
20709;SDS011;10516;51.518;9.864;2023-11-19T07:03:22;11.55;;;5.95;;
20709;SDS011;10516;51.518;9.864;2023-11-19T07:05:47;10.18;;;6.72;;
20709;SDS011;10516;51.518;9.864;2023-11-19T07:08:13;11.95;;;5.30;;
20709;SDS011;10516;51.518;9.864;2023-11-19T07:10:39;10.90;;;5.75;;
20709;SDS011;10516;51.518;9.864;2023-11-19T07:13:04;9.25;;;5.70;;
20709;SDS011;10516;51.518;9.864;2023-11-19T07:15:31;10.18;;;5.50;;
20709;SDS011;10516;51.518;9.864;2023-11-19T07:17:57;7.82;;;5.50;;
20709;SDS011;10516;51.518;9.864;2023-11-19T07:20:24;7.32;;;6.00;;
20709;SDS011;10516;51.518;9.864;2023-11-19T07:22:51;9.93;;;6.32;;
20709;SDS011;10516;51.518;9.864;2023-11-19T07:25:17;16.48;;;5.85;;
20709;SDS011;10516;51.518;9.864;2023-11-19T07:27:42;9.80;;;6.05;;
20709;SDS011;10516;51.518;9.864;2023-11-19T07:30:08;8.93;;;6.38;;
20709;SDS011;10516;51.518;9.864;2023-11-19T07:32:34;8.48;;;5.97;;
20709;SDS011;10516;51.518;9.864;2023-11-19T07:34:59;13.15;;;6.63;;
20709;SDS011;10516;51.518;9.864;2023-11-19T07:37:24;14.23;;;6.53;;
20709;SDS011;10516;51.518;9.864;2023-11-19T07:39:50;17.48;;;6.68;;
20709;SDS011;10516;51.518;9.864;2023-11-19T07:42:15;17.23;;;6.35;;
20709;SDS011;10516;51.518;9.864;2023-11-19T07:44:41;10.32;;;5.97;;
20709;SDS011;10516;51.518;9.864;2023-11-19T07:47:06;8.93;;;6.35;;
20709;SDS011;10516;51.518;9.864;2023-11-19T07:49:32;10.68;;;6.32;;
20709;SDS011;10516;51.518;9.864;2023-11-19T07:51:57;11.20;;;6.40;;
20709;SDS011;10516;51.518;9.864;2023-11-19T07:54:23;12.60;;;5.53;;
20709;SDS011;10516;51.518;9.864;2023-11-19T07:56:49;9.10;;;5.68;;
20709;SDS011;10516;51.518;9.864;2023-11-19T07:59:15;9.40;;;5.57;;
20709;SDS011;10516;51.518;9.864;2023-11-19T08:01:40;10.07;;;4.95;;
20709;SDS011;10516;51.518;9.864;2023-11-19T08:04:06;8.65;;;5.43;;
20709;SDS011;10516;51.518;9.864;2023-11-19T08:06:31;11.05;;;5.05;;
20709;SDS011;10516;51.518;9.864;2023-11-19T08:08:57;13.93;;;5.22;;
20709;SDS011;10516;51.518;9.864;2023-11-19T08:11:22;12.35;;;4.97;;
20709;SDS011;10516;51.518;9.864;2023-11-19T08:13:48;9.65;;;4.72;;
20709;SDS011;10516;51.518;9.864;2023-11-19T08:16:13;13.25;;;4.20;;
20709;SDS011;10516;51.518;9.864;2023-11-19T08:18:41;11.43;;;4.43;;
20709;SDS011;10516;51.518;9.864;2023-11-19T08:21:08;12.02;;;4.75;;
20709;SDS011;10516;51.518;9.864;2023-11-19T08:23:33;11.10;;;5.15;;
20709;SDS011;10516;51.518;9.864;2023-11-19T08:25:59;13.20;;;4.50;;
20709;SDS011;10516;51.518;9.864;2023-11-19T08:28:25;9.80;;;4.85;;
20709;SDS011;10516;51.518;9.864;2023-11-19T08:30:50;13.70;;;5.85;;
20709;SDS011;10516;51.518;9.864;2023-11-19T08:33:15;12.13;;;4.88;;
20709;SDS011;10516;51.518;9.864;2023-11-19T08:35:42;7.72;;;4.35;;
20709;SDS011;10516;51.518;9.864;2023-11-19T08:38:09;8.52;;;4.53;;
20709;SDS011;10516;51.518;9.864;2023-11-19T08:40:35;12.63;;;4.65;;
20709;SDS011;10516;51.518;9.864;2023-11-19T08:43:00;14.68;;;4.47;;
20709;SDS011;10516;51.518;9.864;2023-11-19T08:45:26;20.98;;;4.25;;
20709;SDS011;10516;51.518;9.864;2023-11-19T08:47:51;7.45;;;4.15;;
20709;SDS011;10516;51.518;9.864;2023-11-19T08:50:16;16.42;;;4.88;;
20709;SDS011;10516;51.518;9.864;2023-11-19T08:52:42;15.13;;;4.38;;
20709;SDS011;10516;51.518;9.864;2023-11-19T08:55:07;11.32;;;4.07;;
20709;SDS011;10516;51.518;9.864;2023-11-19T08:57:34;17.05;;;4.28;;
20709;SDS011;10516;51.518;9.864;2023-11-19T09:00:00;13.40;;;4.82;;
20709;SDS011;10516;51.518;9.864;2023-11-19T09:02:26;17.27;;;5.03;;
20709;SDS011;10516;51.518;9.864;2023-11-19T09:04:51;12.80;;;4.32;;
20709;SDS011;10516;51.518;9.864;2023-11-19T09:07:17;15.15;;;4.43;;
20709;SDS011;10516;51.518;9.864;2023-11-19T09:09:42;7.18;;;4.43;;
20709;SDS011;10516;51.518;9.864;2023-11-19T09:12:07;17.55;;;5.25;;
20709;SDS011;10516;51.518;9.864;2023-11-19T09:14:33;17.70;;;6.05;;
20709;SDS011;10516;51.518;9.864;2023-11-19T09:16:58;15.63;;;4.50;;
20709;SDS011;10516;51.518;9.864;2023-11-19T09:19:25;11.88;;;3.95;;
20709;SDS011;10516;51.518;9.864;2023-11-19T09:21:54;13.90;;;4.18;;
20709;SDS011;10516;51.518;9.864;2023-11-19T09:24:19;21.08;;;4.97;;
20709;SDS011;10516;51.518;9.864;2023-11-19T09:26:44;15.98;;;4.50;;
20709;SDS011;10516;51.518;9.864;2023-11-19T09:29:10;11.23;;;3.55;;
20709;SDS011;10516;51.518;9.864;2023-11-19T09:31:37;11.15;;;3.88;;
20709;SDS011;10516;51.518;9.864;2023-11-19T09:34:03;15.25;;;4.18;;
20709;SDS011;10516;51.518;9.864;2023-11-19T09:36:28;17.90;;;4.50;;
20709;SDS011;10516;51.518;9.864;2023-11-19T09:38:53;16.60;;;4.75;;
20709;SDS011;10516;51.518;9.864;2023-11-19T09:41:19;12.60;;;4.05;;
20709;SDS011;10516;51.518;9.864;2023-11-19T09:43:44;27.35;;;5.35;;
20709;SDS011;10516;51.518;9.864;2023-11-19T09:46:10;24.17;;;7.47;;
20709;SDS011;10516;51.518;9.864;2023-11-19T09:48:37;23.80;;;4.90;;
20709;SDS011;10516;51.518;9.864;2023-11-19T09:51:06;21.88;;;5.25;;
20709;SDS011;10516;51.518;9.864;2023-11-19T09:53:33;20.67;;;5.20;;
20709;SDS011;10516;51.518;9.864;2023-11-19T09:56:05;23.05;;;5.07;;
20709;SDS011;10516;51.518;9.864;2023-11-19T09:58:32;21.40;;;4.80;;
20709;SDS011;10516;51.518;9.864;2023-11-19T10:00:59;26.45;;;6.78;;
20709;SDS011;10516;51.518;9.864;2023-11-19T10:03:30;23.90;;;6.13;;
20709;SDS011;10516;51.518;9.864;2023-11-19T10:06:00;32.10;;;9.10;;
20709;SDS011;10516;51.518;9.864;2023-11-19T10:08:26;22.13;;;8.35;;
20709;SDS011;10516;51.518;9.864;2023-11-19T10:10:51;33.40;;;9.38;;
20709;SDS011;10516;51.518;9.864;2023-11-19T10:13:17;28.85;;;7.45;;
20709;SDS011;10516;51.518;9.864;2023-11-19T10:15:43;17.52;;;6.85;;
20709;SDS011;10516;51.518;9.864;2023-11-19T10:18:08;22.65;;;5.15;;
20709;SDS011;10516;51.518;9.864;2023-11-19T10:20:37;23.52;;;5.72;;
20709;SDS011;10516;51.518;9.864;2023-11-19T10:23:05;28.60;;;6.35;;
20709;SDS011;10516;51.518;9.864;2023-11-19T10:25:30;20.83;;;6.13;;
20709;SDS011;10516;51.518;9.864;2023-11-19T10:27:58;25.13;;;5.13;;
20709;SDS011;10516;51.518;9.864;2023-11-19T10:30:24;20.30;;;5.85;;
20709;SDS011;10516;51.518;9.864;2023-11-19T10:33:04;27.75;;;6.00;;
20709;SDS011;10516;51.518;9.864;2023-11-19T10:35:50;37.83;;;6.82;;
20709;SDS011;10516;51.518;9.864;2023-11-19T10:38:18;24.30;;;5.45;;
20709;SDS011;10516;51.518;9.864;2023-11-19T10:40:44;15.73;;;4.63;;
20709;SDS011;10516;51.518;9.864;2023-11-19T10:43:09;22.15;;;4.72;;
20709;SDS011;10516;51.518;9.864;2023-11-19T10:45:35;29.35;;;6.32;;
20709;SDS011;10516;51.518;9.864;2023-11-19T10:48:02;23.27;;;5.93;;
20709;SDS011;10516;51.518;9.864;2023-11-19T10:50:32;21.38;;;5.72;;
20709;SDS011;10516;51.518;9.864;2023-11-19T10:52:59;29.08;;;6.05;;
20709;SDS011;10516;51.518;9.864;2023-11-19T10:55:28;25.50;;;10.07;;
20709;SDS011;10516;51.518;9.864;2023-11-19T10:58:00;29.73;;;9.05;;
20709;SDS011;10516;51.518;9.864;2023-11-19T11:00:28;33.00;;;10.25;;
20709;SDS011;10516;51.518;9.864;2023-11-19T11:02:59;35.20;;;7.97;;
20709;SDS011;10516;51.518;9.864;2023-11-19T11:05:26;18.08;;;5.45;;
20709;SDS011;10516;51.518;9.864;2023-11-19T11:07:52;25.10;;;5.70;;
20709;SDS011;10516;51.518;9.864;2023-11-19T11:10:20;30.85;;;6.13;;
20709;SDS011;10516;51.518;9.864;2023-11-19T11:12:51;19.83;;;5.70;;
20709;SDS011;10516;51.518;9.864;2023-11-19T11:15:22;23.42;;;5.45;;
20709;SDS011;10516;51.518;9.864;2023-11-19T11:17:53;24.55;;;5.95;;
20709;SDS011;10516;51.518;9.864;2023-11-19T11:20:30;33.67;;;6.63;;
20709;SDS011;10516;51.518;9.864;2023-11-19T11:26:02;36.60;;;7.50;;
20709;SDS011;10516;51.518;9.864;2023-11-19T11:36:21;31.90;;;5.00;;
20709;SDS011;10516;51.518;9.864;2023-11-19T11:38:48;25.42;;;5.40;;
20709;SDS011;10516;51.518;9.864;2023-11-19T11:41:15;23.73;;;5.45;;
20709;SDS011;10516;51.518;9.864;2023-11-19T11:49:27;16.55;;;5.07;;
20709;SDS011;10516;51.518;9.864;2023-11-19T11:51:57;27.13;;;6.15;;
20709;SDS011;10516;51.518;9.864;2023-11-19T11:57:09;29.08;;;6.97;;
20709;SDS011;10516;51.518;9.864;2023-11-19T12:02:03;30.77;;;6.63;;
20709;SDS011;10516;51.518;9.864;2023-11-19T12:04:29;16.58;;;5.10;;
20709;SDS011;10516;51.518;9.864;2023-11-19T12:07:04;12.80;;;4.78;;
20709;SDS011;10516;51.518;9.864;2023-11-19T12:09:31;22.10;;;5.32;;
20709;SDS011;10516;51.518;9.864;2023-11-19T12:12:17;16.50;;;4.97;;
20709;SDS011;10516;51.518;9.864;2023-11-19T12:19:58;26.80;;;6.75;;
20709;SDS011;10516;51.518;9.864;2023-11-19T12:22:25;24.48;;;5.70;;
20709;SDS011;10516;51.518;9.864;2023-11-19T12:24:50;27.33;;;6.30;;
20709;SDS011;10516;51.518;9.864;2023-11-19T12:27:18;26.48;;;5.47;;
20709;SDS011;10516;51.518;9.864;2023-11-19T12:29:47;13.10;;;4.10;;
20709;SDS011;10516;51.518;9.864;2023-11-19T12:32:12;31.63;;;6.22;;
20709;SDS011;10516;51.518;9.864;2023-11-19T12:34:38;20.23;;;5.00;;
20709;SDS011;10516;51.518;9.864;2023-11-19T12:37:04;30.55;;;5.47;;
20709;SDS011;10516;51.518;9.864;2023-11-19T12:39:30;26.83;;;6.80;;
20709;SDS011;10516;51.518;9.864;2023-11-19T12:41:56;21.23;;;5.70;;
20709;SDS011;10516;51.518;9.864;2023-11-19T12:44:24;21.48;;;5.00;;
20709;SDS011;10516;51.518;9.864;2023-11-19T12:47:03;29.38;;;6.47;;
20709;SDS011;10516;51.518;9.864;2023-11-19T12:49:29;22.75;;;5.47;;
20709;SDS011;10516;51.518;9.864;2023-11-19T12:51:55;26.98;;;6.28;;
20709;SDS011;10516;51.518;9.864;2023-11-19T12:54:31;23.15;;;6.45;;
20709;SDS011;10516;51.518;9.864;2023-11-19T12:56:57;18.05;;;5.82;;
20709;SDS011;10516;51.518;9.864;2023-11-19T12:59:23;24.30;;;5.53;;
20709;SDS011;10516;51.518;9.864;2023-11-19T13:01:58;21.30;;;5.68;;
20709;SDS011;10516;51.518;9.864;2023-11-19T13:04:28;33.78;;;5.13;;
20709;SDS011;10516;51.518;9.864;2023-11-19T13:06:58;15.73;;;5.15;;
20709;SDS011;10516;51.518;9.864;2023-11-19T13:09:24;22.63;;;5.22;;
20709;SDS011;10516;51.518;9.864;2023-11-19T13:11:53;20.05;;;5.43;;
20709;SDS011;10516;51.518;9.864;2023-11-19T13:14:19;19.85;;;5.65;;
20709;SDS011;10516;51.518;9.864;2023-11-19T13:16:45;16.90;;;5.32;;
20709;SDS011;10516;51.518;9.864;2023-11-19T13:19:12;30.90;;;7.82;;
20709;SDS011;10516;51.518;9.864;2023-11-19T13:21:38;25.65;;;5.72;;
20709;SDS011;10516;51.518;9.864;2023-11-19T13:24:05;29.10;;;6.10;;
20709;SDS011;10516;51.518;9.864;2023-11-19T13:26:33;21.83;;;6.68;;
20709;SDS011;10516;51.518;9.864;2023-11-19T13:28:59;23.70;;;6.18;;
20709;SDS011;10516;51.518;9.864;2023-11-19T13:31:25;23.02;;;7.90;;
20709;SDS011;10516;51.518;9.864;2023-11-19T13:33:51;25.70;;;5.68;;
20709;SDS011;10516;51.518;9.864;2023-11-19T13:36:16;19.23;;;6.40;;
20709;SDS011;10516;51.518;9.864;2023-11-19T13:38:42;21.75;;;5.88;;
20709;SDS011;10516;51.518;9.864;2023-11-19T13:41:09;23.10;;;5.18;;
20709;SDS011;10516;51.518;9.864;2023-11-19T13:43:35;25.35;;;5.70;;
20709;SDS011;10516;51.518;9.864;2023-11-19T13:46:01;20.58;;;6.10;;
20709;SDS011;10516;51.518;9.864;2023-11-19T13:48:27;17.50;;;4.40;;
20709;SDS011;10516;51.518;9.864;2023-11-19T13:50:54;25.20;;;7.72;;
20709;SDS011;10516;51.518;9.864;2023-11-19T13:53:20;28.88;;;4.63;;
20709;SDS011;10516;51.518;9.864;2023-11-19T13:55:46;22.13;;;5.93;;
20709;SDS011;10516;51.518;9.864;2023-11-19T13:58:12;28.33;;;7.10;;
20709;SDS011;10516;51.518;9.864;2023-11-19T14:00:38;27.13;;;5.90;;
20709;SDS011;10516;51.518;9.864;2023-11-19T14:03:03;25.60;;;5.40;;
20709;SDS011;10516;51.518;9.864;2023-11-19T14:05:29;23.88;;;4.75;;
20709;SDS011;10516;51.518;9.864;2023-11-19T14:07:54;21.88;;;4.82;;
20709;SDS011;10516;51.518;9.864;2023-11-19T14:10:21;29.80;;;8.00;;
20709;SDS011;10516;51.518;9.864;2023-11-19T14:12:47;16.55;;;5.03;;
20709;SDS011;10516;51.518;9.864;2023-11-19T14:15:13;22.23;;;4.22;;
20709;SDS011;10516;51.518;9.864;2023-11-19T14:17:39;29.17;;;5.35;;
20709;SDS011;10516;51.518;9.864;2023-11-19T14:20:05;20.77;;;5.25;;
20709;SDS011;10516;51.518;9.864;2023-11-19T14:22:42;19.42;;;5.40;;
20709;SDS011;10516;51.518;9.864;2023-11-19T14:25:09;29.52;;;6.00;;
20709;SDS011;10516;51.518;9.864;2023-11-19T14:27:35;16.58;;;4.15;;
20709;SDS011;10516;51.518;9.864;2023-11-19T14:30:03;18.92;;;6.20;;
20709;SDS011;10516;51.518;9.864;2023-11-19T14:32:30;19.95;;;5.03;;
20709;SDS011;10516;51.518;9.864;2023-11-19T14:34:56;35.03;;;6.68;;
20709;SDS011;10516;51.518;9.864;2023-11-19T14:37:21;19.42;;;4.68;;
20709;SDS011;10516;51.518;9.864;2023-11-19T14:39:46;15.32;;;4.15;;
20709;SDS011;10516;51.518;9.864;2023-11-19T14:42:12;33.78;;;5.70;;
20709;SDS011;10516;51.518;9.864;2023-11-19T14:44:38;26.73;;;5.85;;
20709;SDS011;10516;51.518;9.864;2023-11-19T14:47:04;20.20;;;4.65;;
20709;SDS011;10516;51.518;9.864;2023-11-19T14:49:30;16.20;;;5.63;;
20709;SDS011;10516;51.518;9.864;2023-11-19T14:51:55;20.00;;;4.13;;
20709;SDS011;10516;51.518;9.864;2023-11-19T14:54:20;25.13;;;6.45;;
20709;SDS011;10516;51.518;9.864;2023-11-19T14:56:45;16.60;;;5.57;;
20709;SDS011;10516;51.518;9.864;2023-11-19T14:59:11;27.88;;;5.50;;
20709;SDS011;10516;51.518;9.864;2023-11-19T15:01:36;26.27;;;6.15;;
20709;SDS011;10516;51.518;9.864;2023-11-19T15:04:02;18.35;;;5.97;;
20709;SDS011;10516;51.518;9.864;2023-11-19T15:06:27;24.35;;;5.57;;
20709;SDS011;10516;51.518;9.864;2023-11-19T15:08:53;24.85;;;6.32;;